Time;durP1;ratioP1;P1;durP2;ratioP2;P2;SDS_P1;SDS_P2;PMS_P1;PMS_P2;Temp;Humidity;BMP_temperature;BMP_pressure;BME280_temperature;BME280_humidity;BME280_pressure;Samples;Min_cycle;Max_cycle;Signal;HPM_P1;HPM_P2
2021/03/22 00:02:21;;;;;;;7.17;3.13;;;0.30;99.90;;;;;;4990231;28;20450;-82
2021/03/22 00:04:47;;;;;;;5.95;2.78;;;0.30;99.90;;;;;;4991540;28;20435;-83
2021/03/22 00:07:13;;;;;;;4.57;2.60;;;0.20;99.90;;;;;;4992441;28;20376;-81
2021/03/22 00:09:38;;;;;;;5.78;2.60;;;0.30;99.90;;;;;;5010828;28;20379;-82
2021/03/22 00:12:04;;;;;;;5.70;2.50;;;0.20;99.90;;;;;;5011133;28;20785;-84
2021/03/22 00:14:30;;;;;;;4.55;2.78;;;0.20;99.90;;;;;;4993283;28;21073;-81
2021/03/22 00:16:55;;;;;;;5.10;2.65;;;0.20;99.90;;;;;;5010864;28;20442;-82
2021/03/22 00:19:21;;;;;;;6.07;2.88;;;0.10;99.90;;;;;;5010700;28;20430;-82
2021/03/22 00:21:46;;;;;;;5.33;2.63;;;0.10;99.90;;;;;;5010922;28;20916;-83
2021/03/22 00:24:12;;;;;;;5.17;2.53;;;0.10;99.90;;;;;;5010963;28;20375;-82
2021/03/22 00:26:38;;;;;;;4.33;2.70;;;0.10;99.90;;;;;;4993355;28;20449;-83
2021/03/22 00:29:04;;;;;;;4.40;2.50;;;0.10;99.90;;;;;;4992852;28;20426;-83
2021/03/22 00:31:30;;;;;;;5.00;2.60;;;0.00;99.90;;;;;;5010630;28;20411;-83
2021/03/22 00:33:55;;;;;;;6.35;3.05;;;0.00;99.90;;;;;;4992925;28;20445;-81
2021/03/22 00:36:21;;;;;;;7.10;2.70;;;0.00;99.90;;;;;;5010567;28;20387;-81
2021/03/22 00:38:48;;;;;;;5.50;2.93;;;-0.10;99.90;;;;;;4993198;28;20375;-84
2021/03/22 00:41:14;;;;;;;6.65;2.83;;;-0.10;99.90;;;;;;5010505;28;20372;-84
2021/03/22 00:43:39;;;;;;;6.70;3.03;;;-0.10;99.90;;;;;;5010769;28;20375;-82
2021/03/22 00:46:05;;;;;;;5.30;2.47;;;-0.20;99.90;;;;;;5010639;28;20904;-84
2021/03/22 00:48:33;;;;;;;4.45;2.70;;;-0.20;99.90;;;;;;4992776;28;20761;-83
2021/03/22 00:51:00;;;;;;;4.43;2.47;;;-0.20;99.90;;;;;;4992825;28;20814;-84
2021/03/22 00:53:25;;;;;;;5.65;2.83;;;-0.20;99.90;;;;;;5010668;28;20430;-82
2021/03/22 00:55:52;;;;;;;6.07;2.85;;;-0.20;99.90;;;;;;4992806;28;20742;-81
2021/03/22 00:58:17;;;;;;;4.45;2.63;;;-0.20;99.90;;;;;;5010205;28;20379;-83
2021/03/22 01:00:48;;;;;;;6.13;2.60;;;-0.20;99.90;;;;;;5010312;28;20387;-83
2021/03/22 01:03:18;;;;;;;4.72;2.92;;;-0.20;99.90;;;;;;5010171;28;20379;-83
2021/03/22 01:05:43;;;;;;;5.20;2.85;;;-0.20;99.90;;;;;;4992785;28;20470;-83
2021/03/22 01:08:10;;;;;;;6.33;2.70;;;-0.20;99.90;;;;;;5010161;28;20526;-83
2021/03/22 01:10:42;;;;;;;6.78;2.50;;;-0.20;99.90;;;;;;4992476;28;20439;-81
2021/03/22 01:13:14;;;;;;;6.07;2.75;;;-0.20;99.90;;;;;;4992485;28;20457;-83
2021/03/22 01:15:40;;;;;;;5.95;2.30;;;-0.30;99.90;;;;;;4992565;28;20395;-83
2021/03/22 01:18:06;;;;;;;7.75;3.00;;;-0.30;99.90;;;;;;4996793;28;20378;-83
2021/03/22 01:20:41;;;;;;;6.18;2.42;;;-0.30;99.90;;;;;;5016742;28;20747;-83
2021/03/22 01:23:07;;;;;;;5.72;2.50;;;-0.30;99.90;;;;;;5016765;28;20394;-81
2021/03/22 01:25:33;;;;;;;7.90;3.08;;;-0.30;99.90;;;;;;5016731;28;20374;-82
2021/03/22 01:27:59;;;;;;;5.57;2.47;;;-0.40;99.90;;;;;;4998689;28;20510;-81
2021/03/22 01:30:36;;;;;;;6.38;2.75;;;-0.40;99.90;;;;;;5016654;28;20465;-81
2021/03/22 01:33:04;;;;;;;5.32;2.45;;;-0.40;99.90;;;;;;4998732;28;20411;-81
2021/03/22 01:35:30;;;;;;;8.85;3.00;;;-0.40;99.90;;;;;;5016547;28;20485;-84
2021/03/22 01:37:55;;;;;;;6.97;2.40;;;-0.40;99.90;;;;;;5016482;28;20897;-82
2021/03/22 01:40:30;;;;;;;6.63;2.60;;;-0.40;99.90;;;;;;5016561;28;20431;-83
2021/03/22 01:43:42;;;;;;;6.93;2.55;;;-0.40;99.90;;;;;;5016409;28;20387;-84
2021/03/22 01:46:07;;;;;;;5.47;2.72;;;-0.50;99.90;;;;;;4998938;28;20383;-80
2021/03/22 01:48:33;;;;;;;5.33;2.63;;;-0.50;99.90;;;;;;5016308;28;20437;-83
2021/03/22 01:50:59;;;;;;;5.45;2.70;;;-0.50;99.90;;;;;;4998596;28;20418;-82
2021/03/22 01:53:25;;;;;;;7.77;2.90;;;-0.50;99.90;;;;;;5016019;28;20395;-84
2021/03/22 01:55:50;;;;;;;6.60;2.60;;;-0.50;99.90;;;;;;4998652;28;20390;-81
2021/03/22 01:58:16;;;;;;;5.40;2.73;;;-0.50;99.90;;;;;;4998553;28;20379;-80
2021/03/22 02:00:42;;;;;;;6.43;2.88;;;-0.50;99.90;;;;;;5016245;28;20814;-82
2021/03/22 02:03:15;;;;;;;7.22;2.65;;;-0.50;99.90;;;;;;4998543;28;20387;-79
2021/03/22 02:05:44;;;;;;;9.27;3.03;;;-0.50;99.90;;;;;;5016153;28;20383;-80
2021/03/22 02:08:12;;;;;;;5.65;2.60;;;-0.50;99.90;;;;;;5016344;28;20391;-82
2021/03/22 02:10:40;;;;;;;6.47;2.78;;;-0.40;99.90;;;;;;5016153;28;20494;-83
2021/03/22 02:13:06;;;;;;;6.78;2.80;;;-0.40;99.90;;;;;;5015988;28;20410;-83
2021/03/22 02:15:33;;;;;;;7.50;3.13;;;-0.40;99.90;;;;;;5016167;28;20908;-81
2021/03/22 02:18:11;;;;;;;6.82;3.15;;;-0.40;99.90;;;;;;5016087;28;20441;-82
2021/03/22 02:20:49;;;;;;;6.60;2.95;;;-0.40;99.90;;;;;;5016219;28;20382;-83
2021/03/22 02:23:50;;;;;;;6.07;2.75;;;-0.40;99.90;;;;;;5016040;28;20383;-81
2021/03/22 02:26:53;;;;;;;8.60;3.22;;;-0.40;99.90;;;;;;5016145;28;20379;-83
2021/03/22 02:29:31;;;;;;;7.05;3.53;;;-0.40;99.90;;;;;;5013309;28;20383;-81
2021/03/22 02:32:31;;;;;;;7.88;3.30;;;-0.40;99.90;;;;;;5012973;28;20745;-82
2021/03/22 02:35:02;;;;;;;7.45;2.80;;;-0.40;99.90;;;;;;4993441;28;20408;-84
2021/03/22 02:37:59;;;;;;;6.80;2.78;;;-0.50;99.90;;;;;;4994786;28;20388;-83
2021/03/22 02:40:38;;;;;;;8.45;3.10;;;-0.50;99.90;;;;;;4974534;28;20391;-82
2021/03/22 02:43:05;;;;;;;6.15;2.65;;;-0.40;99.90;;;;;;4994702;28;20391;-82
2021/03/22 02:45:35;;;;;;;7.88;3.28;;;-0.50;99.90;;;;;;5012792;28;20375;-84
2021/03/22 02:48:02;;;;;;;9.43;3.42;;;-0.50;99.90;;;;;;5012752;28;20923;-81
2021/03/22 02:50:31;;;;;;;9.32;3.40;;;-0.40;99.90;;;;;;4994895;28;21292;-82
2021/03/22 02:53:16;;;;;;;7.38;2.88;;;-0.50;99.90;;;;;;5012664;28;20389;-84
2021/03/22 02:55:53;;;;;;;10.25;3.05;;;-0.40;99.90;;;;;;5012500;28;20418;-82
2021/03/22 02:58:22;;;;;;;10.15;3.78;;;-0.40;99.90;;;;;;5012260;28;20462;-80
2021/03/22 03:00:59;;;;;;;7.93;2.90;;;-0.40;99.90;;;;;;4994618;28;20414;-84
2021/03/22 03:03:27;;;;;;;9.20;3.70;;;-0.30;99.90;;;;;;5012519;28;20371;-83
2021/03/22 03:05:53;;;;;;;9.43;3.55;;;-0.30;99.90;;;;;;5012491;28;20386;-82
2021/03/22 03:08:35;;;;;;;7.68;3.40;;;-0.20;99.90;;;;;;4994575;28;20414;-82
2021/03/22 03:11:01;;;;;;;9.65;3.78;;;-0.20;99.90;;;;;;4994455;28;20395;-84
2021/03/22 03:13:27;;;;;;;8.20;3.70;;;-0.20;99.90;;;;;;4994551;28;20411;-83
2021/03/22 03:15:53;;;;;;;11.82;4.30;;;-0.10;99.90;;;;;;5012249;28;20371;-81
2021/03/22 03:18:19;;;;;;;9.27;3.90;;;-0.10;99.90;;;;;;5011834;28;20383;-83
2021/03/22 03:20:45;;;;;;;8.35;3.60;;;-0.10;99.90;;;;;;5012050;28;20390;-82
2021/03/22 03:23:10;;;;;;;9.50;4.07;;;0.00;99.90;;;;;;5011952;28;20824;-82
2021/03/22 03:25:36;;;;;;;10.20;4.38;;;0.00;99.90;;;;;;5011973;28;20384;-84
2021/03/22 03:28:02;;;;;;;18.57;5.53;;;0.00;99.90;;;;;;5011671;28;20429;-83
2021/03/22 03:30:35;;;;;;;13.40;5.17;;;0.00;99.90;;;;;;5011983;28;20375;-83
2021/03/22 03:33:02;;;;;;;15.90;5.82;;;0.00;99.90;;;;;;4994302;28;20429;-83
2021/03/22 03:35:30;;;;;;;15.63;5.60;;;0.10;99.90;;;;;;4993919;28;20390;-82
2021/03/22 03:37:57;;;;;;;17.13;5.80;;;0.10;99.90;;;;;;5011333;28;20383;-82
2021/03/22 03:40:29;;;;;;;19.30;6.00;;;0.20;99.90;;;;;;5011785;28;20466;-84
2021/03/22 03:42:55;;;;;;;22.67;7.13;;;0.20;99.90;;;;;;4994178;28;20499;-82
2021/03/22 03:45:23;;;;;;;26.27;6.65;;;0.30;99.90;;;;;;5011694;28;20478;-83
2021/03/22 03:47:48;;;;;;;19.38;6.20;;;0.40;99.90;;;;;;4993607;28;20512;-83
2021/03/22 03:50:18;;;;;;;26.13;6.80;;;0.40;99.90;;;;;;5011542;28;20469;-83
2021/03/22 03:52:44;;;;;;;21.70;6.55;;;0.40;99.90;;;;;;4994288;28;20414;-81
2021/03/22 03:55:11;;;;;;;25.65;7.40;;;0.40;99.90;;;;;;5011375;28;20889;-83
2021/03/22 03:57:37;;;;;;;27.35;7.55;;;0.50;99.90;;;;;;5010968;28;20383;-83
2021/03/22 04:00:14;;;;;;;23.15;7.40;;;0.50;99.90;;;;;;5011489;28;20433;-82
2021/03/22 04:02:43;;;;;;;29.58;7.28;;;0.50;99.90;;;;;;5011528;28;20445;-84
2021/03/22 04:05:09;;;;;;;24.35;7.05;;;0.60;99.90;;;;;;4993891;28;20472;-82
2021/03/22 04:07:35;;;;;;;19.77;6.65;;;0.60;99.90;;;;;;5010813;28;20423;-82
2021/03/22 04:10:00;;;;;;;28.15;7.65;;;0.70;99.90;;;;;;5011039;28;20419;-83
2021/03/22 04:12:26;;;;;;;24.10;7.18;;;0.70;99.90;;;;;;5011158;28;20382;-82
2021/03/22 04:14:52;;;;;;;21.10;6.55;;;0.70;99.90;;;;;;4993348;28;20407;-82
2021/03/22 04:17:18;;;;;;;25.33;7.37;;;0.70;99.90;;;;;;5010540;28;20390;-81
2021/03/22 04:19:43;;;;;;;30.10;7.57;;;0.70;99.90;;;;;;5011092;28;20379;-82
2021/03/22 04:22:11;;;;;;;21.30;7.03;;;0.70;99.90;;;;;;4993471;28;20893;-81
2021/03/22 04:24:36;;;;;;;18.30;6.77;;;0.60;99.90;;;;;;5010759;28;20379;-81
2021/03/22 04:27:02;;;;;;;25.57;6.90;;;0.70;99.90;;;;;;4993130;28;20394;-83
2021/03/22 04:29:28;;;;;;;24.88;7.68;;;0.70;99.90;;;;;;5010648;28;20900;-81
2021/03/22 04:31:54;;;;;;;23.60;7.30;;;0.70;99.90;;;;;;4993241;28;20379;-81
2021/03/22 04:34:19;;;;;;;22.05;6.90;;;0.70;99.90;;;;;;5010748;28;20509;-83
2021/03/22 04:36:45;;;;;;;24.87;7.67;;;0.70;99.90;;;;;;5010729;28;20876;-83
2021/03/22 04:39:10;;;;;;;20.13;6.53;;;0.70;99.90;;;;;;5010787;28;20383;-83
2021/03/22 04:41:37;;;;;;;18.60;6.20;;;0.70;99.90;;;;;;5010771;28;20466;-81
2021/03/22 04:44:04;;;;;;;19.43;6.60;;;0.70;99.90;;;;;;5010925;28;20508;-84
2021/03/22 04:46:30;;;;;;;24.67;7.27;;;0.70;99.90;;;;;;4993018;28;20471;-82
2021/03/22 04:48:55;;;;;;;24.93;7.13;;;0.60;99.90;;;;;;5010525;28;20379;-82
2021/03/22 04:51:21;;;;;;;31.20;8.77;;;0.60;99.90;;;;;;5010248;28;20865;-84
2021/03/22 04:53:47;;;;;;;20.40;8.07;;;0.60;99.90;;;;;;5010248;28;20399;-82
2021/03/22 04:56:12;;;;;;;24.97;8.10;;;0.50;99.90;;;;;;5010514;28;20387;-83
2021/03/22 04:58:40;;;;;;;21.27;6.70;;;0.50;99.90;;;;;;4992557;28;21026;-83
2021/03/22 05:01:08;;;;;;;21.40;7.38;;;0.50;99.90;;;;;;5010511;28;20457;-83
2021/03/22 05:03:33;;;;;;;22.25;7.53;;;0.50;99.90;;;;;;5010562;28;20385;-81
2021/03/22 05:05:59;;;;;;;27.02;8.10;;;0.40;99.90;;;;;;5010742;28;20387;-82
2021/03/22 05:08:25;;;;;;;23.40;7.30;;;0.40;99.90;;;;;;5009922;28;20379;-81
2021/03/22 05:10:53;;;;;;;23.77;7.53;;;0.40;99.90;;;;;;5010253;28;20774;-84
2021/03/22 05:13:20;;;;;;;24.40;8.25;;;0.40;99.90;;;;;;4992633;28;20399;-83
2021/03/22 05:15:46;;;;;;;29.45;8.25;;;0.40;99.90;;;;;;5010188;28;20902;-82
2021/03/22 05:18:13;;;;;;;24.73;7.80;;;0.50;99.90;;;;;;5009888;28;20446;-81
2021/03/22 05:20:45;;;;;;;25.65;7.93;;;0.50;99.90;;;;;;4992509;28;20379;-82
2021/03/22 05:23:18;;;;;;;25.88;8.20;;;0.50;99.90;;;;;;4992908;28;20379;-81
2021/03/22 05:25:43;;;;;;;24.42;8.27;;;0.60;99.90;;;;;;4992582;28;20399;-83
2021/03/22 05:28:10;;;;;;;24.48;6.97;;;0.70;99.90;;;;;;5009993;28;20386;-83
2021/03/22 05:30:37;;;;;;;27.35;7.95;;;0.70;99.90;;;;;;5010167;28;20474;-81
2021/03/22 05:33:08;;;;;;;27.20;8.25;;;0.80;99.90;;;;;;5010222;28;20446;-81
2021/03/22 05:35:35;;;;;;;19.13;6.68;;;0.80;99.90;;;;;;5010359;28;20474;-83
2021/03/22 05:38:01;;;;;;;26.77;8.43;;;0.80;99.90;;;;;;5009712;28;20446;-81
2021/03/22 05:40:38;;;;;;;25.30;8.15;;;0.80;99.90;;;;;;5010072;28;20742;-82
2021/03/22 05:43:37;;;;;;;37.33;13.25;;;0.90;99.90;;;;;;5010459;28;20866;-85
2021/03/22 05:46:18;;;;;;;28.00;9.80;;;0.80;99.90;;;;;;4992507;28;20425;-82
2021/03/22 05:49:01;;;;;;;33.78;10.35;;;0.90;99.90;;;;;;5008762;28;20450;-80
2021/03/22 05:51:45;;;;;;;30.45;9.40;;;0.90;99.90;;;;;;4988041;28;20474;-82
2021/03/22 05:54:29;;;;;;;30.65;9.77;;;0.90;99.90;;;;;;5009550;28;20403;-83
2021/03/22 05:57:13;;;;;;;24.85;8.82;;;1.00;99.90;;;;;;4990887;28;20399;-87
2021/03/22 05:59:51;;;;;;;27.65;9.27;;;1.10;99.90;;;;;;5009371;28;20383;-87
2021/03/22 06:02:38;;;;;;;27.52;9.70;;;1.20;99.90;;;;;;5010518;28;20983;-87
2021/03/22 06:05:09;;;;;;;29.73;9.48;;;1.40;99.90;;;;;;5012438;28;20395;-82
2021/03/22 06:07:43;;;;;;;34.10;9.98;;;1.60;99.90;;;;;;4996886;28;20426;-84
2021/03/22 06:10:15;;;;;;;24.85;8.18;;;1.80;99.90;;;;;;5014447;28;20878;-80
2021/03/22 06:13:02;;;;;;;29.08;8.55;;;2.10;99.90;;;;;;5026875;28;20382;-85
2021/03/22 06:15:35;;;;;;;33.50;8.75;;;2.40;99.90;;;;;;5034072;28;20400;-87
2021/03/22 06:18:30;;;;;;;30.80;8.55;;;2.70;99.90;;;;;;5015102;28;20421;-84
2021/03/22 06:20:58;;;;;;;30.42;8.75;;;2.80;99.90;;;;;;5016532;28;20375;-84
2021/03/22 06:23:38;;;;;;;32.33;8.48;;;2.90;99.90;;;;;;4995406;28;20757;-87
2021/03/22 06:26:05;;;;;;;26.93;8.57;;;3.10;99.90;;;;;;5013920;28;20399;-87
2021/03/22 06:28:34;;;;;;;31.08;8.45;;;3.30;99.90;;;;;;5000968;28;20931;-81
2021/03/22 06:31:01;;;;;;;27.75;7.68;;;3.50;99.90;;;;;;5005786;28;20480;-83
2021/03/22 06:33:36;;;;;;;23.55;8.02;;;3.70;99.90;;;;;;5021210;28;20406;-83
2021/03/22 06:36:03;;;;;;;24.97;7.70;;;3.80;99.90;;;;;;5007777;28;20398;-87
2021/03/22 06:38:29;;;;;;;36.35;8.32;;;4.00;99.90;;;;;;5005619;28;20399;-85
2021/03/22 06:40:54;;;;;;;27.02;8.02;;;4.40;99.90;;;;;;5000051;28;20468;-84
2021/03/22 06:43:23;;;;;;;25.35;7.65;;;4.70;99.90;;;;;;4976868;28;20891;-85
2021/03/22 06:46:03;;;;;;;27.30;8.27;;;4.80;99.90;;;;;;4976859;28;20436;-84
2021/03/22 06:48:32;;;;;;;27.20;8.70;;;4.90;99.90;;;;;;4993809;28;20388;-88
2021/03/22 06:51:04;;;;;;;27.98;8.30;;;4.80;99.90;;;;;;4994114;28;20484;-82
2021/03/22 06:53:46;;;;;;;22.00;7.70;;;4.70;99.90;;;;;;4976498;28;20480;-86
2021/03/22 06:56:18;;;;;;;25.10;7.55;;;4.70;99.90;;;;;;4976354;28;20731;-85
2021/03/22 06:58:45;;;;;;;25.33;7.97;;;4.70;99.90;;;;;;4992957;28;20460;-83
2021/03/22 07:01:21;;;;;;;22.65;7.15;;;4.60;99.90;;;;;;4974953;28;20380;-83
2021/03/22 07:03:48;;;;;;;25.88;7.95;;;4.70;99.90;;;;;;4993520;28;20860;-83
2021/03/22 07:06:20;;;;;;;23.17;7.50;;;4.80;99.90;;;;;;4975378;28;20931;-86
2021/03/22 07:08:46;;;;;;;27.27;7.40;;;4.90;99.90;;;;;;4994758;28;20392;-82
2021/03/22 07:11:17;;;;;;;27.33;7.70;;;5.00;99.90;;;;;;5008905;28;20895;-81
2021/03/22 07:14:03;;;;;;;21.40;7.35;;;5.10;99.90;;;;;;4999559;28;20400;-85
2021/03/22 07:16:31;;;;;;;25.77;7.78;;;4.90;99.90;;;;;;5016839;28;20400;-85
2021/03/22 07:19:30;;;;;;;25.42;7.78;;;4.80;99.90;;;;;;5017150;28;20401;-82
2021/03/22 07:22:02;;;;;;;22.38;7.07;;;5.00;99.90;;;;;;4985779;28;20392;-89
2021/03/22 07:24:57;;;;;;;24.33;7.47;;;5.10;99.90;;;;;;5019252;28;20472;-89
2021/03/22 07:28:00;;;;;;;24.52;7.35;;;4.90;99.90;;;;;;5017547;28;20380;-87
2021/03/22 07:30:45;;;;;;;25.70;7.53;;;5.00;99.90;;;;;;4976983;28;20445;-85
2021/03/22 07:33:38;;;;;;;23.07;7.17;;;5.10;99.90;;;;;;5003357;28;20486;-79
2021/03/22 07:36:33;;;;;;;25.58;7.78;;;5.00;99.90;;;;;;5017013;28;20390;-87
2021/03/22 07:39:20;;;;;;;24.80;7.57;;;5.10;99.90;;;;;;5011049;28;20392;-86
2021/03/22 07:42:12;;;;;;;22.93;7.33;;;5.10;99.90;;;;;;4998833;28;20394;-85
2021/03/22 07:44:47;;;;;;;28.50;7.78;;;5.10;99.90;;;;;;5019090;28;20401;-84
2021/03/22 07:47:41;;;;;;;23.90;7.07;;;5.20;99.90;;;;;;4999270;28;20401;-84
2021/03/22 07:50:32;;;;;;;22.10;7.25;;;5.40;99.90;;;;;;4998092;28;20482;-84
2021/03/22 07:53:24;;;;;;;23.17;7.22;;;5.40;99.90;;;;;;4989531;28;20740;-83
2021/03/22 07:56:19;;;;;;;27.48;8.52;;;5.10;99.90;;;;;;4996583;28;20391;-86
2021/03/22 07:59:25;;;;;;;26.27;8.20;;;5.10;99.90;;;;;;4954419;28;20895;-84
2021/03/22 08:02:22;;;;;;;22.38;7.70;;;4.90;99.90;;;;;;4995803;28;20404;-83
2021/03/22 08:05:07;;;;;;;23.27;7.72;;;5.10;99.90;;;;;;5014495;28;20407;-85
2021/03/22 08:07:48;;;;;;;23.40;7.50;;;5.20;99.90;;;;;;4997365;28;20401;-84
2021/03/22 08:10:30;;;;;;;22.48;7.50;;;5.40;99.90;;;;;;5016070;28;20395;-83
2021/03/22 08:13:23;;;;;;;23.60;7.40;;;5.30;99.90;;;;;;5015492;28;20375;-83
2021/03/22 08:16:07;;;;;;;22.83;8.10;;;5.50;99.90;;;;;;5009188;28;20388;-84
2021/03/22 08:18:41;;;;;;;21.63;7.22;;;5.70;99.90;;;;;;5010897;28;20760;-82
2021/03/22 08:21:18;;;;;;;25.30;7.47;;;5.90;99.90;;;;;;5029739;28;20381;-85
2021/03/22 08:24:21;;;;;;;24.00;7.32;;;6.10;99.90;;;;;;5030920;28;20382;-84
2021/03/22 08:26:51;;;;;;;21.50;6.97;;;6.30;99.90;;;;;;5012352;28;21030;-83
2021/03/22 08:29:25;;;;;;;21.70;6.72;;;6.50;99.90;;;;;;5030546;28;20382;-82
2021/03/22 08:32:12;;;;;;;18.27;6.57;;;6.60;99.90;;;;;;5030938;28;20557;-82
2021/03/22 08:34:56;;;;;;;20.95;6.10;;;6.60;99.90;;;;;;5030687;28;20763;-84
2021/03/22 08:37:35;;;;;;;24.33;7.13;;;6.80;99.90;;;;;;5012946;28;20396;-82
2021/03/22 08:40:10;;;;;;;20.52;7.05;;;6.80;99.90;;;;;;5031259;28;20397;-83
2021/03/22 08:42:45;;;;;;;19.35;6.53;;;6.70;99.90;;;;;;5025774;28;20386;-87
2021/03/22 08:45:36;;;;;;;23.20;8.02;;;6.80;99.90;;;;;;4992697;28;20466;-85
2021/03/22 08:48:12;;;;;;;23.55;6.97;;;7.10;99.90;;;;;;5009974;28;20394;-83
2021/03/22 08:50:40;;;;;;;17.15;5.93;;;7.30;99.90;;;;;;5010553;28;20391;-86
2021/03/22 08:53:25;;;;;;;19.50;6.30;;;7.50;99.90;;;;;;5002651;28;20394;-85
2021/03/22 08:56:01;;;;;;;17.15;5.40;;;7.50;99.90;;;;;;5009692;28;20418;-84
2021/03/22 08:58:36;;;;;;;19.23;5.85;;;7.50;99.90;;;;;;4992982;28;20465;-83
2021/03/22 09:01:08;;;;;;;19.23;5.68;;;7.30;99.90;;;;;;5010743;28;20466;-82
2021/03/22 09:03:37;;;;;;;17.42;5.03;;;7.50;99.90;;;;;;5009921;28;20458;-85
2021/03/22 09:06:06;;;;;;;15.15;5.60;;;7.80;99.90;;;;;;5010280;28;20395;-83
2021/03/22 09:08:34;;;;;;;17.63;5.10;;;8.20;99.90;;;;;;4986102;28;20400;-82
2021/03/22 09:11:21;;;;;;;13.43;4.13;;;8.50;99.90;;;;;;5016972;28;20957;-85
2021/03/22 09:13:53;;;;;;;13.10;4.60;;;8.70;99.90;;;;;;5018255;28;20412;-84
2021/03/22 09:16:24;;;;;;;9.70;3.40;;;8.70;99.90;;;;;;5016840;28;20387;-82
2021/03/22 09:19:08;;;;;;;9.82;3.72;;;8.60;99.90;;;;;;5017569;28;20416;-87
2021/03/22 09:21:35;;;;;;;10.63;3.78;;;8.40;99.90;;;;;;5014415;28;20481;-84
2021/03/22 09:24:01;;;;;;;11.10;4.07;;;8.40;99.90;;;;;;5016872;28;20414;-83
2021/03/22 09:26:51;;;;;;;10.15;3.80;;;8.50;99.90;;;;;;5016687;28;20391;-84
2021/03/22 09:29:41;;;;;;;11.20;4.43;;;8.40;99.90;;;;;;4997855;28;20786;-83
2021/03/22 09:32:28;;;;;;;11.02;4.00;;;8.40;99.90;;;;;;4998173;28;20398;-84
2021/03/22 09:35:18;;;;;;;10.80;3.75;;;8.20;99.90;;;;;;4993798;28;20966;-84
2021/03/22 09:37:59;;;;;;;10.10;4.15;;;8.40;99.90;;;;;;4978718;28;20896;-87
2021/03/22 09:40:24;;;;;;;10.98;4.40;;;8.60;99.90;;;;;;5001861;28;20521;-83
2021/03/22 09:43:12;;;;;;;11.20;4.82;;;8.70;99.90;;;;;;4998030;28;20534;-88
2021/03/22 09:46:01;;;;;;;12.10;4.50;;;8.80;99.90;;;;;;5020600;28;20437;-84
2021/03/22 09:48:32;;;;;;;9.77;3.80;;;8.70;99.90;;;;;;4999468;28;20431;-84
2021/03/22 09:51:04;;;;;;;8.40;3.30;;;8.70;99.90;;;;;;5014773;28;20403;-84
2021/03/22 09:53:41;;;;;;;10.00;3.92;;;8.80;98.70;;;;;;4995554;28;20396;-82
2021/03/22 09:56:21;;;;;;;8.00;3.42;;;9.00;99.10;;;;;;5021557;28;20436;-84
2021/03/22 09:58:47;;;;;;;9.70;3.50;;;9.00;97.80;;;;;;5001729;28;20391;-83
2021/03/22 10:01:31;;;;;;;10.93;4.05;;;8.90;98.40;;;;;;5013494;28;20781;-84
2021/03/22 10:04:17;;;;;;;10.35;3.50;;;8.90;98.40;;;;;;5012979;28;20474;-83
2021/03/22 10:07:09;;;;;;;12.05;3.30;;;9.00;97.50;;;;;;4996307;28;20901;-84
2021/03/22 10:09:53;;;;;;;8.20;2.70;;;9.00;96.10;;;;;;5013655;28;20387;-82
2021/03/22 10:12:21;;;;;;;9.00;3.17;;;9.10;96.40;;;;;;5012586;28;20426;-84
2021/03/22 10:15:13;;;;;;;10.05;3.08;;;9.30;97.10;;;;;;5012210;28;20402;-82
2021/03/22 10:17:48;;;;;;;9.40;3.22;;;9.20;93.60;;;;;;5004646;28;20446;-84
2021/03/22 10:20:26;;;;;;;7.05;2.90;;;9.20;94.60;;;;;;5013672;28;20391;-83
2021/03/22 10:23:04;;;;;;;5.22;1.90;;;9.40;94.70;;;;;;5006125;28;20474;-85
2021/03/22 10:25:32;;;;;;;4.97;2.22;;;9.40;89.90;;;;;;4995201;28;20399;-84
2021/03/22 10:28:00;;;;;;;4.80;2.20;;;9.20;90.60;;;;;;5013356;28;20422;-85
2021/03/22 10:30:26;;;;;;;6.70;2.53;;;9.10;91.10;;;;;;5013187;28;20395;-82
2021/03/22 10:33:06;;;;;;;6.75;2.85;;;9.20;91.00;;;;;;5012729;28;20461;-81
2021/03/22 10:35:47;;;;;;;9.45;2.90;;;9.40;91.70;;;;;;4994806;28;20403;-82
2021/03/22 10:38:25;;;;;;;6.25;2.35;;;9.60;92.40;;;;;;5012723;28;20399;-83
2021/03/22 10:40:54;;;;;;;8.23;2.90;;;9.70;91.00;;;;;;5013713;28;20434;-81
2021/03/22 10:43:42;;;;;;;6.28;2.80;;;9.70;90.90;;;;;;5022052;28;20784;-83
2021/03/22 10:46:19;;;;;;;5.55;2.20;;;9.70;91.20;;;;;;5029854;28;20385;-82
2021/03/22 10:49:00;;;;;;;8.27;2.63;;;9.70;90.10;;;;;;5027677;28;20379;-84
2021/03/22 10:51:37;;;;;;;5.50;2.50;;;9.70;89.00;;;;;;4994961;28;20426;-88
2021/03/22 10:54:12;;;;;;;7.30;2.70;;;9.70;89.60;;;;;;5012823;28;20414;-89
2021/03/22 10:56:57;;;;;;;5.78;2.17;;;9.90;88.80;;;;;;4995762;28;20399;-84
2021/03/22 10:59:34;;;;;;;5.60;1.88;;;10.00;86.10;;;;;;4994927;28;20430;-87
2021/03/22 11:02:09;;;;;;;5.38;2.30;;;10.10;82.70;;;;;;4995345;28;20415;-86
2021/03/22 11:04:38;;;;;;;6.13;2.23;;;10.20;83.30;;;;;;4995151;28;20429;-82
2021/03/22 11:07:33;;;;;;;4.67;1.90;;;10.10;83.20;;;;;;4994855;28;20961;-82
2021/03/22 11:10:21;;;;;;;5.25;2.40;;;10.10;82.40;;;;;;4994432;28;20404;-86
2021/03/22 11:12:50;;;;;;;4.95;2.00;;;10.30;83.20;;;;;;5014766;28;20766;-82
2021/03/22 11:15:28;;;;;;;5.60;2.65;;;10.40;86.10;;;;;;4992923;28;20506;-81
2021/03/22 11:17:54;;;;;;;7.50;2.83;;;10.60;82.80;;;;;;5010613;28;20885;-82
2021/03/22 11:20:21;;;;;;;4.82;2.28;;;10.70;84.40;;;;;;5012017;28;20380;-83
2021/03/22 11:22:49;;;;;;;5.15;2.47;;;10.90;83.00;;;;;;5011753;28;20394;-82
2021/03/22 11:25:30;;;;;;;6.97;2.40;;;10.70;80.70;;;;;;4993319;28;20729;-81
2021/03/22 11:28:06;;;;;;;4.10;2.20;;;10.40;82.30;;;;;;5007741;28;20407;-82
2021/03/22 11:30:40;;;;;;;5.75;2.58;;;10.40;81.90;;;;;;5001851;28;20871;-86
2021/03/22 11:33:22;;;;;;;8.60;2.47;;;10.20;82.10;;;;;;5004349;28;20462;-83
2021/03/22 11:36:19;;;;;;;5.63;2.60;;;10.20;82.00;;;;;;4994358;28;20395;-84
2021/03/22 11:38:59;;;;;;;6.25;2.40;;;10.20;84.30;;;;;;5011672;28;20874;-85
2021/03/22 11:41:32;;;;;;;6.50;2.38;;;10.40;84.00;;;;;;5011864;28;20414;-80
2021/03/22 11:44:24;;;;;;;7.13;2.53;;;10.60;81.50;;;;;;5012384;28;20504;-84
2021/03/22 11:46:56;;;;;;;6.22;2.53;;;10.50;82.60;;;;;;5011645;28;20872;-84
2021/03/22 11:49:45;;;;;;;6.45;2.50;;;10.50;83.10;;;;;;5009844;28;20395;-85
2021/03/22 11:52:18;;;;;;;6.20;2.30;;;10.50;83.50;;;;;;5011853;28;20410;-83
2021/03/22 11:55:08;;;;;;;5.18;2.10;;;10.50;82.50;;;;;;5011682;28;20407;-81
2021/03/22 11:57:37;;;;;;;5.82;2.20;;;10.70;82.10;;;;;;4996865;28;20383;-82
2021/03/22 12:00:19;;;;;;;6.50;2.47;;;10.70;80.30;;;;;;5011334;28;20397;-85
2021/03/22 12:03:02;;;;;;;6.13;2.30;;;10.70;79.20;;;;;;4991583;28;20395;-77
2021/03/22 12:05:33;;;;;;;5.10;2.20;;;10.50;82.70;;;;;;5008208;28;20399;-84
2021/03/22 12:07:58;;;;;;;5.38;2.63;;;10.70;78.60;;;;;;4993464;28;20912;-78
2021/03/22 12:10:28;;;;;;;4.72;1.65;;;10.50;78.90;;;;;;5010871;28;20387;-82
2021/03/22 12:12:59;;;;;;;4.55;1.52;;;10.60;79.00;;;;;;4993516;28;20387;-83
2021/03/22 12:15:26;;;;;;;4.65;1.73;;;10.80;76.60;;;;;;5010953;28;20518;-84
2021/03/22 12:18:18;;;;;;;5.25;1.85;;;10.80;75.30;;;;;;5011174;28;20532;-85
2021/03/22 12:20:43;;;;;;;4.10;1.80;;;10.70;76.50;;;;;;4995006;28;20418;-83
2021/03/22 12:23:09;;;;;;;5.13;1.70;;;10.90;75.30;;;;;;5011112;28;20387;-82
2021/03/22 12:25:36;;;;;;;5.03;1.70;;;11.20;74.50;;;;;;5011066;28;20406;-84
2021/03/22 12:28:02;;;;;;;4.10;1.50;;;11.40;75.30;;;;;;5010862;28;20396;-81
2021/03/22 12:30:28;;;;;;;4.53;1.77;;;11.20;70.90;;;;;;5010859;28;20404;-83
2021/03/22 12:32:56;;;;;;;3.23;1.47;;;11.40;72.20;;;;;;5011321;28;20382;-79
2021/03/22 12:35:42;;;;;;;3.13;1.40;;;11.20;68.90;;;;;;5011176;28;20549;-81
2021/03/22 12:38:09;;;;;;;3.77;1.53;;;11.00;69.00;;;;;;5010303;28;20387;-82
2021/03/22 12:40:34;;;;;;;2.88;1.60;;;11.10;68.20;;;;;;4992903;28;20757;-83
2021/03/22 12:43:00;;;;;;;3.20;1.15;;;11.40;67.50;;;;;;5010622;28;20507;-81
2021/03/22 12:45:27;;;;;;;2.47;1.33;;;11.70;66.60;;;;;;4992921;28;20423;-81
2021/03/22 12:47:54;;;;;;;2.63;1.10;;;11.80;68.10;;;;;;4993252;28;20398;-81
2021/03/22 12:50:26;;;;;;;3.85;1.27;;;11.50;65.80;;;;;;5009402;28;20410;-82
2021/03/22 12:52:53;;;;;;;2.70;1.30;;;11.40;67.00;;;;;;4978503;28;20916;-80
2021/03/22 12:55:21;;;;;;;3.25;1.40;;;11.20;67.50;;;;;;5001936;28;20404;-82
2021/03/22 12:57:48;;;;;;;2.97;1.30;;;11.30;66.60;;;;;;5003026;28;20387;-81
2021/03/22 13:00:16;;;;;;;3.90;1.30;;;11.20;65.40;;;;;;5010401;28;20375;-84
2021/03/22 13:02:45;;;;;;;2.45;1.25;;;11.10;66.70;;;;;;4995491;28;20390;-84
2021/03/22 13:05:29;;;;;;;3.67;1.73;;;11.10;67.70;;;;;;5002965;28;20393;-89
2021/03/22 13:07:56;;;;;;;4.77;2.10;;;11.30;69.30;;;;;;5001253;28;20385;-77
2021/03/22 13:10:25;;;;;;;4.50;1.90;;;11.50;72.10;;;;;;5015441;28;20438;-89
2021/03/22 13:12:51;;;;;;;4.50;2.10;;;11.40;72.90;;;;;;5014663;28;20391;-87
2021/03/22 13:15:31;;;;;;;5.40;2.05;;;11.50;74.10;;;;;;4995959;28;20409;-86
2021/03/22 13:17:57;;;;;;;4.30;1.83;;;11.70;75.20;;;;;;4997360;28;20453;-84
2021/03/22 13:20:24;;;;;;;4.18;1.80;;;12.00;74.50;;;;;;4994930;28;20392;-85
2021/03/22 13:22:52;;;;;;;4.68;1.90;;;12.00;71.90;;;;;;4998096;28;20409;-87